This is the latest recevied weather packets stored in our database for station/object HG8GL-6. If no packets are shown the sender has not sent any weather packets the latest 10 day(s).
| Time | Temp. | Humidity | Pressure | Rain* | Wind** | Luminosity | Snow |
|---|---|---|---|---|---|---|---|
| 1777693775 | 11.67° C | 44% | 1024 hPa | 0 mm | - | - | - |
| 1777693145 | 11.67° C | 45% | 1024 hPa | 0 mm | - | - | - |
| 1777692515 | 11.67° C | 45% | 1024 hPa | 0 mm | - | - | - |
| 1777691915 | 11.67° C | 45% | 1024 hPa | 0 mm | - | - | - |
| 1777691315 | 11.11° C | 45% | 1024 hPa | 0 mm | - | - | - |
| 1777690715 | 11.11° C | 45% | 1024 hPa | 0 mm | - | - | - |
| 1777690115 | 11.11° C | 44% | 1024 hPa | 0 mm | - | - | - |
| 1777689515 | 11.11° C | 45% | 1024 hPa | 0 mm | - | - | - |
| 1777674035 | 12.78° C | 39% | 1025 hPa | 0 mm | - | - | - |
| 1777673405 | 12.78° C | 39% | 1025 hPa | 0 mm | - | - | - |
| 1777670885 | 12.78° C | 39% | 1025 hPa | 0 mm | - | - | - |
| 1777670255 | 12.78° C | 39% | 1024 hPa | 0 mm | - | - | - |
| 1777669625 | 12.78° C | 39% | 1024 hPa | 0 mm | - | - | - |
| 1777669025 | 12.78° C | 39% | 1024 hPa | 0 mm | - | - | - |
| 1777668395 | 12.78° C | 39% | 1024 hPa | 0 mm | - | - | - |
| 1777667764 | 12.78° C | 39% | 1024 hPa | 0 mm | - | - | - |
| 1777665248 | 12.22° C | 39% | 1024 hPa | 0 mm | - | - | - |
| 1777657114 | 15.56° C | 29% | 1023 hPa | 0 mm | - | - | - |
| 1777655224 | 17.22° C | 27% | 1024 hPa | 0 mm | - | - | - |
| 1777654594 | 17.78° C | 26% | 1024 hPa | 0 mm | - | - | - |
| 1777653994 | 17.78° C | 26% | 1024 hPa | 0 mm | - | - | - |
| 1777653364 | 17.78° C | 26% | 1024 hPa | 0 mm | - | - | - |
| 1777652734 | 18.33° C | 26% | 1024 hPa | 0 mm | - | - | - |
| 1777650844 | 19.44° C | 25% | 1024 hPa | 0 mm | - | - | - |
| 1777649614 | 19.44° C | 25% | 1024 hPa | 0 mm | - | - | - |
* Rain latest hour (hover to see other rain measurements)
** Current wind speed in m/s (hover to see current wind gust speed)